createdAt,value
2022-09-12T00:00:17.816Z,31.98
2022-09-12T00:03:19.240Z,28.83
2022-09-12T00:06:24.263Z,27.05
2022-09-12T00:09:25.682Z,27.25
2022-09-12T00:12:27.077Z,29.58
2022-09-12T00:15:28.493Z,28.45
2022-09-12T00:18:29.893Z,28.30
2022-09-12T00:21:33.814Z,29.80
2022-09-12T00:24:35.246Z,28.95
2022-09-12T00:27:36.704Z,28.35
2022-09-12T00:30:46.304Z,28.35
2022-09-12T00:33:47.892Z,28.42
2022-09-12T00:36:49.313Z,29.55
2022-09-12T00:39:50.775Z,30.00
2022-09-12T00:42:52.198Z,31.65
2022-09-12T00:45:53.682Z,32.03
2022-09-12T00:49:01.443Z,30.95
2022-09-12T00:52:05.913Z,30.83
2022-09-12T00:55:40.405Z,28.73
2022-09-12T00:58:54.396Z,31.75
2022-09-12T01:01:56.485Z,29.27
2022-09-12T01:04:58.035Z,31.52
2022-09-12T01:08:01.402Z,30.77
2022-09-12T01:11:05.181Z,33.07
2022-09-12T01:14:07.887Z,28.95
2022-09-12T01:17:13.257Z,29.38
2022-09-12T01:20:41.684Z,29.70
2022-09-12T01:23:45.882Z,28.30
2022-09-12T01:30:17.326Z,28.17
2022-09-12T01:33:33.933Z,28.10
2022-09-12T01:37:15.018Z,29.55
2022-09-12T01:40:40.109Z,28.40
2022-09-12T01:43:51.560Z,26.70
2022-09-12T01:47:00.858Z,28.58
2022-09-12T01:50:07.936Z,28.52
2022-09-12T01:53:16.853Z,28.30
2022-09-12T01:56:24.245Z,27.52
2022-09-12T01:59:32.851Z,27.55
2022-09-12T02:02:42.942Z,26.20
2022-09-12T02:05:53.468Z,26.77
2022-09-12T02:09:02.445Z,26.98
2022-09-12T02:12:07.825Z,28.85
2022-09-12T02:15:12.339Z,28.92
2022-09-12T02:18:16.979Z,30.13
2022-09-12T02:21:20.936Z,30.23
2022-09-12T02:24:24.924Z,28.95
2022-09-12T02:27:40.834Z,27.98
2022-09-12T02:30:52.809Z,29.52
2022-09-12T02:34:27.928Z,26.95
2022-09-12T02:40:34.761Z,26.20
2022-09-12T02:43:36.687Z,30.42
2022-09-12T02:46:46.530Z,34.25
2022-09-12T02:49:48.418Z,32.88
2022-09-12T02:52:51.696Z,33.40
2022-09-12T02:55:53.949Z,32.37
2022-09-12T02:59:01.301Z,33.40
2022-09-12T03:02:38.430Z,30.10
2022-09-12T03:06:00.829Z,30.83
2022-09-12T03:09:30.130Z,31.33
2022-09-12T03:13:02.435Z,29.27
2022-09-12T03:16:19.201Z,28.92
2022-09-12T03:19:25.448Z,30.08
2022-09-12T03:22:51.190Z,30.48
2022-09-12T03:25:59.240Z,30.83
2022-09-12T03:29:03.305Z,30.58
2022-09-12T03:32:04.804Z,30.85
2022-09-12T03:35:06.790Z,31.27
2022-09-12T03:38:08.736Z,30.17
2022-09-12T03:41:10.138Z,31.73
2022-09-12T03:44:11.589Z,31.13
2022-09-12T03:47:12.984Z,32.15
2022-09-12T03:50:14.372Z,31.65
2022-09-12T03:53:17.386Z,29.38
2022-09-12T03:56:18.962Z,29.58
2022-09-12T03:59:20.340Z,31.05
2022-09-12T04:02:21.788Z,31.83
2022-09-12T04:05:25.423Z,30.10
2022-09-12T04:08:26.844Z,30.90
2022-09-12T04:11:28.253Z,31.23
2022-09-12T04:14:29.697Z,32.53
2022-09-12T04:17:31.078Z,31.63
2022-09-12T04:20:32.596Z,31.30
2022-09-12T04:23:34.479Z,32.00
2022-09-12T04:26:35.883Z,33.53
2022-09-12T04:29:37.803Z,31.02
2022-09-12T04:32:39.208Z,31.33
2022-09-12T04:35:40.705Z,30.33
2022-09-12T04:38:44.088Z,31.67
2022-09-12T04:41:45.475Z,31.45
2022-09-12T04:44:48.283Z,32.00
2022-09-12T04:47:49.729Z,30.70
2022-09-12T04:50:51.113Z,32.35
2022-09-12T04:53:54.376Z,35.08
2022-09-12T04:56:55.779Z,34.17
2022-09-12T04:59:57.190Z,33.40
2022-09-12T05:02:58.579Z,34.13
2022-09-12T05:06:03.188Z,35.80
2022-09-12T05:09:06.408Z,34.67
2022-09-12T05:12:07.855Z,33.77
2022-09-12T05:15:09.722Z,35.30
2022-09-12T05:18:11.112Z,36.03
2022-09-12T05:21:15.086Z,36.45
2022-09-12T05:24:16.615Z,35.33
2022-09-12T05:27:18.070Z,38.15
2022-09-12T05:30:19.469Z,37.50
2022-09-12T05:33:24.901Z,38.72
2022-09-12T05:36:30.531Z,39.80
2022-09-12T05:39:31.953Z,39.35
2022-09-12T05:42:33.527Z,38.33
2022-09-12T05:45:34.937Z,38.60
2022-09-12T05:48:37.257Z,38.55
2022-09-12T05:51:44.421Z,36.70
2022-09-12T05:54:45.789Z,38.90
2022-09-12T05:57:47.711Z,37.58
2022-09-12T06:00:49.234Z,38.90
2022-09-12T06:03:53.311Z,37.25
2022-09-12T06:06:54.784Z,38.15
2022-09-12T06:09:56.168Z,37.58
2022-09-12T06:12:57.556Z,37.75
2022-09-12T06:16:10.486Z,36.80
2022-09-12T06:19:15.350Z,34.70
2022-09-12T06:22:16.760Z,34.25
2022-09-12T06:25:18.181Z,34.83
2022-09-12T06:28:19.610Z,32.38
2022-09-12T06:31:23.645Z,29.13
2022-09-12T06:34:25.067Z,27.77
2022-09-12T06:37:26.518Z,28.05
2022-09-12T06:40:27.982Z,26.73
2022-09-12T06:43:29.429Z,26.33
2022-09-12T06:46:31.250Z,26.40
2022-09-12T06:49:33.018Z,26.40
2022-09-12T06:52:34.424Z,26.35
2022-09-12T06:55:38.758Z,27.50
2022-09-12T06:58:42.016Z,27.05
2022-09-12T07:01:43.723Z,24.40
2022-09-12T07:04:45.131Z,21.35
2022-09-12T07:07:46.523Z,20.55
2022-09-12T07:10:47.998Z,19.60
2022-09-12T07:13:54.797Z,19.98
2022-09-12T07:16:56.356Z,21.02
2022-09-12T07:19:58.168Z,19.88
2022-09-12T07:22:59.547Z,20.05
2022-09-12T07:26:01.533Z,19.40
2022-09-12T07:29:32.227Z,19.13
2022-09-12T07:32:24.632Z,18.50
2022-09-12T07:35:26.022Z,17.85
2022-09-12T07:38:28.540Z,17.60
2022-09-12T07:41:31.621Z,16.90
2022-09-12T07:44:33.037Z,16.98
2022-09-12T07:47:34.463Z,17.02
2022-09-12T07:50:36.406Z,17.08
2022-09-12T07:53:40.466Z,16.98
2022-09-12T07:56:41.929Z,16.27
2022-09-12T07:59:52.439Z,17.10
2022-09-12T08:02:54.758Z,16.65
2022-09-12T08:06:03.431Z,17.27
2022-09-12T08:09:10.693Z,17.45
2022-09-12T08:12:12.620Z,17.58
2022-09-12T08:15:14.343Z,16.23
2022-09-12T08:18:15.762Z,17.42
2022-09-12T08:21:18.638Z,17.50
2022-09-12T08:24:20.064Z,17.33
2022-09-12T08:27:21.509Z,16.48
2022-09-12T08:30:22.914Z,17.35
2022-09-12T08:33:24.347Z,15.20
2022-09-12T08:36:28.022Z,16.30
2022-09-12T08:39:29.425Z,14.75
2022-09-12T08:42:51.345Z,15.52
2022-09-12T08:46:02.218Z,17.13
2022-09-12T08:49:09.005Z,16.20
2022-09-12T08:52:38.905Z,16.17
2022-09-12T08:55:43.348Z,15.95
2022-09-12T08:58:46.033Z,15.40
2022-09-12T09:01:50.149Z,15.25
2022-09-12T09:05:04.842Z,14.52
2022-09-12T09:08:35.614Z,14.75
2022-09-12T09:12:18.771Z,14.65
2022-09-12T09:15:26.298Z,14.47
2022-09-12T09:18:31.924Z,13.52
2022-09-12T09:21:48.341Z,13.82
2022-09-12T09:24:55.117Z,12.23
2022-09-12T09:27:56.469Z,11.95
2022-09-12T09:30:58.219Z,11.00
2022-09-12T09:34:00.377Z,10.32
2022-09-12T09:37:15.323Z,11.75
2022-09-12T09:41:03.084Z,12.48
2022-09-12T09:44:04.861Z,7.72
2022-09-12T09:47:11.511Z,7.30
2022-09-12T09:50:16.545Z,7.30
2022-09-12T09:53:35.995Z,6.63
2022-09-12T09:56:41.706Z,7.05
2022-09-12T09:59:43.116Z,6.40
2022-09-12T10:03:17.538Z,6.35
2022-09-12T10:06:30.388Z,6.10
2022-09-12T10:09:36.265Z,5.70
2022-09-12T10:12:37.675Z,6.50
2022-09-12T10:15:39.159Z,6.70
2022-09-12T10:18:42.041Z,5.90
2022-09-12T10:21:52.504Z,7.30
2022-09-12T10:24:58.135Z,8.18
2022-09-12T10:28:00.816Z,8.43
2022-09-12T10:31:02.348Z,9.20
2022-09-12T10:34:04.017Z,8.45
2022-09-12T10:37:08.297Z,8.13
2022-09-12T10:40:24.510Z,8.15
2022-09-12T10:43:34.426Z,7.75
2022-09-12T10:46:35.813Z,7.28
2022-09-12T10:49:37.202Z,6.70
2022-09-12T10:52:38.677Z,6.57
2022-09-12T10:55:43.223Z,7.45
2022-09-12T10:59:07.536Z,8.30
2022-09-12T11:02:23.400Z,7.32
2022-09-12T11:05:52.444Z,7.38
2022-09-12T11:09:16.678Z,6.15
2022-09-12T11:12:37.055Z,5.65
2022-09-12T11:15:44.278Z,5.85
2022-09-12T11:19:02.937Z,6.13
2022-09-12T11:22:31.933Z,5.78
2022-09-12T11:25:52.932Z,5.10
2022-09-12T11:29:10.151Z,4.65
2022-09-12T11:32:42.224Z,4.82
2022-09-12T11:35:55.238Z,4.53
2022-09-12T11:39:15.432Z,4.88
2022-09-12T11:42:33.094Z,4.20
2022-09-12T11:45:41.409Z,5.18
2022-09-12T11:48:57.621Z,5.40
2022-09-12T11:52:15.913Z,5.90
2022-09-12T11:55:22.257Z,5.60
2022-09-12T11:58:27.378Z,5.10
2022-09-12T12:01:40.434Z,5.50
2022-09-12T12:05:04.798Z,4.13
2022-09-12T12:08:06.945Z,4.78
2022-09-12T12:11:09.816Z,4.88
2022-09-12T12:14:31.256Z,4.85
2022-09-12T12:17:33.872Z,5.10
2022-09-12T12:20:35.979Z,4.97
2022-09-12T12:23:37.491Z,4.40
2022-09-12T12:26:38.830Z,4.60
2022-09-12T12:29:44.044Z,5.07
2022-09-12T12:32:45.665Z,4.30
2022-09-12T12:35:59.385Z,4.68
2022-09-12T12:42:30.956Z,4.47
2022-09-12T12:45:35.186Z,4.50
2022-09-12T12:49:02.803Z,4.05
2022-09-12T12:52:04.335Z,5.15
2022-09-12T12:55:16.766Z,4.60
2022-09-12T12:58:35.383Z,3.65
2022-09-12T13:01:36.933Z,4.55
2022-09-12T13:04:44.714Z,4.22
2022-09-12T13:07:46.746Z,3.88
2022-09-12T13:11:16.071Z,3.25
2022-09-12T13:14:42.493Z,3.40
2022-09-12T13:17:45.679Z,3.85
2022-09-12T13:21:03.953Z,3.78
2022-09-12T13:24:14.400Z,3.80
2022-09-12T13:27:24.524Z,3.13
2022-09-12T13:30:26.735Z,2.95
2022-09-12T13:33:39.950Z,3.00
2022-09-12T13:36:57.149Z,3.05
2022-09-12T13:40:29.763Z,2.85
2022-09-12T13:43:43.152Z,3.17
2022-09-12T13:46:45.059Z,3.10
2022-09-12T13:49:46.517Z,3.17
2022-09-12T13:52:58.134Z,3.25
2022-09-12T13:56:00.304Z,3.13
2022-09-12T13:59:02.559Z,3.33
2022-09-12T14:02:18.449Z,2.92
2022-09-12T14:05:24.515Z,3.40
2022-09-12T14:08:25.969Z,2.90
2022-09-12T14:11:29.476Z,3.60
2022-09-12T14:14:35.233Z,3.17
2022-09-12T14:17:38.778Z,3.30
2022-09-12T14:20:41.513Z,3.22
2022-09-12T14:23:45.310Z,3.15
2022-09-12T14:26:47.135Z,3.17
2022-09-12T14:29:49.432Z,3.10
2022-09-12T14:33:21.369Z,3.03
2022-09-12T14:36:45.364Z,3.00
2022-09-12T14:42:50.500Z,3.00
2022-09-12T14:45:58.382Z,2.63
2022-09-12T14:49:12.807Z,2.28
2022-09-12T14:52:28.331Z,2.58
2022-09-12T14:55:32.476Z,2.80
2022-09-12T14:58:34.289Z,2.40
2022-09-12T15:01:35.882Z,2.70
2022-09-12T15:04:41.835Z,2.50
2022-09-12T15:07:51.020Z,2.50
2022-09-12T15:10:52.745Z,2.72
2022-09-12T15:13:54.466Z,2.40
2022-09-12T15:16:55.889Z,2.90
2022-09-12T15:19:57.286Z,2.38
2022-09-12T15:22:58.920Z,2.60
2022-09-12T15:26:00.686Z,2.70
2022-09-12T15:29:02.094Z,2.63
2022-09-12T15:32:03.877Z,2.63
2022-09-12T15:35:21.860Z,2.65
2022-09-12T15:38:26.595Z,2.55
2022-09-12T15:41:32.316Z,2.70
2022-09-12T15:44:33.713Z,2.80
2022-09-12T15:47:35.129Z,2.70
2022-09-12T15:50:36.540Z,3.08
2022-09-12T15:53:38.032Z,2.80
2022-09-12T15:56:39.442Z,2.88
2022-09-12T15:59:40.873Z,2.65
2022-09-12T16:02:42.365Z,2.45
2022-09-12T16:05:43.801Z,2.60
2022-09-12T16:08:45.248Z,2.75
2022-09-12T16:11:46.731Z,2.40
2022-09-12T16:14:48.129Z,2.70
2022-09-12T16:17:50.326Z,2.80
2022-09-12T16:20:53.194Z,2.88
2022-09-12T16:23:54.621Z,2.87
2022-09-12T16:27:00.908Z,2.97
2022-09-12T16:30:04.795Z,2.90
2022-09-12T16:33:06.196Z,3.13
2022-09-12T16:36:10.139Z,3.00
2022-09-12T16:39:11.567Z,2.95
2022-09-12T16:42:13.060Z,2.80
2022-09-12T16:45:14.599Z,2.92
2022-09-12T16:48:16.255Z,3.30
2022-09-12T16:51:20.178Z,3.15
2022-09-12T16:54:21.802Z,3.20
2022-09-12T16:57:24.406Z,3.50
2022-09-12T17:00:25.846Z,3.45
2022-09-12T17:03:27.501Z,3.40
2022-09-12T17:06:29.011Z,2.97
2022-09-12T17:09:30.448Z,2.90
2022-09-12T17:12:31.852Z,3.33
2022-09-12T17:15:36.750Z,3.13
2022-09-12T17:18:38.691Z,3.22
2022-09-12T17:21:40.130Z,3.25
2022-09-12T17:24:41.542Z,3.25
2022-09-12T17:27:42.965Z,3.00
2022-09-12T17:30:44.505Z,2.97
2022-09-12T17:33:46.075Z,3.05
2022-09-12T17:36:47.577Z,3.08
2022-09-12T17:39:49.090Z,2.97
2022-09-12T17:42:50.512Z,3.30
2022-09-12T17:45:57.788Z,3.20
2022-09-12T17:48:59.461Z,3.10
2022-09-12T17:52:01.022Z,3.78
2022-09-12T17:55:02.943Z,3.70
2022-09-12T17:58:04.347Z,3.08
2022-09-12T18:01:13.895Z,3.60
2022-09-12T18:04:15.913Z,3.20
2022-09-12T18:07:19.074Z,3.03
2022-09-12T18:10:20.566Z,3.60
2022-09-12T18:13:22.274Z,4.30
2022-09-12T18:16:23.780Z,5.35
2022-09-12T18:19:25.681Z,4.15
2022-09-12T18:22:27.096Z,5.80
2022-09-12T18:25:28.473Z,5.47
2022-09-12T18:28:33.141Z,4.93
2022-09-12T18:31:34.843Z,4.68
2022-09-12T18:34:36.335Z,3.47
2022-09-12T18:37:37.949Z,3.10
2022-09-12T18:40:39.336Z,2.83
2022-09-12T18:43:41.369Z,3.47
2022-09-12T18:46:42.820Z,3.13
2022-09-12T18:49:44.250Z,3.40
2022-09-12T18:52:45.653Z,3.83
2022-09-12T18:55:47.089Z,3.50
2022-09-12T18:58:53.491Z,4.15
2022-09-12T19:01:55.116Z,4.50
2022-09-12T19:04:56.616Z,4.63
2022-09-12T19:07:58.062Z,5.20
2022-09-12T19:10:59.492Z,5.03
2022-09-12T19:14:00.946Z,5.60
2022-09-12T19:17:02.412Z,5.28
2022-09-12T19:20:04.059Z,5.50
2022-09-12T19:23:05.475Z,4.88
2022-09-12T19:26:09.175Z,5.03
2022-09-12T19:29:11.843Z,4.70
2022-09-12T19:32:13.372Z,3.72
2022-09-12T19:35:14.832Z,4.10
2022-09-12T19:38:17.015Z,4.07
2022-09-12T19:41:18.439Z,4.38
2022-09-12T19:44:19.827Z,5.00
2022-09-12T19:47:21.782Z,6.10
2022-09-12T19:50:23.531Z,6.50
2022-09-12T19:53:25.035Z,6.32
2022-09-12T19:56:26.428Z,5.35
2022-09-12T19:59:27.865Z,6.88
2022-09-12T20:02:29.285Z,7.57
2022-09-12T20:05:32.540Z,7.07
2022-09-12T20:08:34.452Z,7.70
2022-09-12T20:11:35.843Z,7.50
2022-09-12T20:14:37.261Z,8.25
2022-09-12T20:17:38.943Z,8.50
2022-09-12T20:20:40.366Z,7.78
2022-09-12T20:23:41.933Z,8.38
2022-09-12T20:26:43.428Z,7.25
2022-09-12T20:29:44.815Z,7.82
2022-09-12T20:32:46.243Z,8.25
2022-09-12T20:35:47.640Z,9.63
2022-09-12T20:38:51.681Z,9.38
2022-09-12T20:44:54.493Z,8.63
2022-09-12T20:47:55.889Z,7.95
2022-09-12T20:51:00.179Z,9.82
2022-09-12T20:54:03.746Z,9.27
2022-09-12T20:57:05.184Z,10.25
2022-09-12T21:00:07.139Z,9.60
2022-09-12T21:03:08.554Z,10.35
2022-09-12T21:06:11.184Z,9.43
2022-09-12T21:09:12.614Z,10.20
2022-09-12T21:12:14.025Z,10.50
2022-09-12T21:15:15.497Z,9.80
2022-09-12T21:18:16.892Z,9.13
2022-09-12T21:21:18.280Z,9.23
2022-09-12T21:24:19.782Z,10.52
2022-09-12T21:27:21.181Z,9.18
2022-09-12T21:30:22.605Z,9.27
2022-09-12T21:33:24.159Z,9.25
2022-09-12T21:36:25.619Z,8.95
2022-09-12T21:39:26.995Z,9.30
2022-09-12T21:42:28.466Z,9.32
2022-09-12T21:45:29.966Z,9.05
2022-09-12T21:48:31.731Z,9.80
2022-09-12T21:51:33.165Z,8.95
2022-09-12T21:54:34.569Z,8.80
2022-09-12T21:57:35.949Z,9.25
2022-09-12T22:00:37.510Z,9.70
2022-09-12T22:03:39.021Z,9.55
2022-09-12T22:06:40.410Z,9.80
2022-09-12T22:09:42.179Z,9.60
2022-09-12T22:12:46.029Z,10.40
2022-09-12T22:15:52.005Z,10.07
2022-09-12T22:18:53.478Z,9.07
2022-09-12T22:21:55.060Z,9.60
2022-09-12T22:24:56.486Z,9.10
2022-09-12T22:27:57.882Z,9.57
2022-09-12T22:30:59.319Z,8.90
2022-09-12T22:34:00.839Z,10.15
2022-09-12T22:37:02.253Z,10.15
2022-09-12T22:40:03.981Z,11.05
2022-09-12T22:43:05.411Z,10.90
2022-09-12T22:46:11.478Z,11.45
2022-09-12T22:49:12.928Z,13.18
2022-09-12T22:52:15.101Z,11.68
2022-09-12T22:55:16.477Z,12.90
2022-09-12T22:58:17.974Z,12.98
2022-09-12T23:01:19.653Z,13.57
2022-09-12T23:04:21.224Z,16.20
2022-09-12T23:07:22.650Z,16.88
2022-09-12T23:10:24.051Z,16.15
2022-09-12T23:13:25.442Z,15.70
2022-09-12T23:16:26.910Z,16.65
2022-09-12T23:19:28.365Z,18.02
2022-09-12T23:22:29.967Z,18.02
2022-09-12T23:25:31.356Z,16.42
2022-09-12T23:28:33.662Z,16.33
2022-09-12T23:31:35.263Z,15.18
2022-09-12T23:34:36.679Z,14.23
2022-09-12T23:37:38.113Z,14.00
2022-09-12T23:40:39.507Z,15.07
2022-09-12T23:43:41.741Z,14.02
2022-09-12T23:46:43.221Z,14.27
2022-09-12T23:49:44.645Z,14.68
2022-09-12T23:52:46.037Z,15.38
2022-09-12T23:55:47.804Z,15.40
2022-09-12T23:58:49.366Z,14.30
